Terminal Aerodrome Forecast
Issued by NWS

Home | Current Version | Previous Version | Text Only | Print | Product List | Glossary On
Versions: 1 2 3 4 5 6 7 8 9 10 11 12
000
FTUS43 KLSX 011140
TAFUIN
TAF
KUIN 011140Z 0112/0212 20007KT P6SM FEW080
      TEMPO 0112/0113 5SM BR
     FM011700 22009KT P6SM SCT045
     FM020100 18004KT P6SM SKC=

USA.gov is the U.S. government's official web portal to all federal, state and local government web resources and services.